Time;durP1;ratioP1;P1;durP2;ratioP2;P2;SDS_P1;SDS_P2;PMS_P1;PMS_P2;Temp;Humidity;BMP_temperature;BMP_pressure;BME280_temperature;BME280_humidity;BME280_pressure;Samples;Min_cycle;Max_cycle;Signal;HPM_P1;HPM_P2
2022/02/16 00:02:08;;;;;;;23.33;16.45;;;20.50;49.10;;;;;;4994070;28;20768;-68
2022/02/16 00:04:34;;;;;;;21.73;15.35;;;20.50;49.10;;;;;;4994518;28;20226;-67
2022/02/16 00:07:00;;;;;;;21.75;15.40;;;20.50;49.10;;;;;;4997438;28;20339;-69
2022/02/16 00:09:25;;;;;;;21.52;14.65;;;20.50;49.10;;;;;;4996487;28;20029;-69
2022/02/16 00:11:51;;;;;;;22.65;15.73;;;20.50;49.10;;;;;;4997039;28;20026;-69
2022/02/16 00:14:16;;;;;;;21.23;15.05;;;20.50;49.10;;;;;;4994696;28;20038;-65
2022/02/16 00:16:42;;;;;;;23.05;15.02;;;20.50;49.10;;;;;;4995414;28;20065;-69
2022/02/16 00:19:08;;;;;;;21.45;14.77;;;20.50;49.10;;;;;;5010105;28;20291;-69
2022/02/16 00:21:33;;;;;;;19.83;14.50;;;20.50;49.10;;;;;;4996993;28;20568;-69
2022/02/16 00:23:59;;;;;;;21.33;15.00;;;20.50;49.10;;;;;;4995061;28;20038;-69
2022/02/16 00:26:25;;;;;;;21.55;15.30;;;20.40;49.00;;;;;;4997182;28;20337;-68
2022/02/16 00:28:50;;;;;;;20.98;14.77;;;20.40;49.10;;;;;;4994719;28;20037;-69
2022/02/16 00:31:16;;;;;;;20.08;14.88;;;20.40;49.00;;;;;;4994957;28;20886;-69
2022/02/16 00:33:42;;;;;;;20.40;13.85;;;20.40;49.00;;;;;;4996214;28;20121;-69
2022/02/16 00:36:07;;;;;;;20.23;13.93;;;20.40;49.00;;;;;;5011221;28;20486;-69
2022/02/16 00:38:33;;;;;;;17.83;13.10;;;20.40;49.00;;;;;;5003113;28;20041;-68
2022/02/16 00:40:59;;;;;;;19.73;13.60;;;20.40;49.00;;;;;;4995673;28;20113;-68
2022/02/16 00:43:25;;;;;;;18.80;13.93;;;20.40;49.00;;;;;;4996753;28;20052;-69
2022/02/16 00:45:50;;;;;;;18.55;13.48;;;20.40;49.00;;;;;;4995963;28;20026;-68
2022/02/16 00:48:16;;;;;;;17.70;13.00;;;20.40;49.50;;;;;;4995751;28;20173;-66
2022/02/16 00:50:42;;;;;;;17.67;12.48;;;20.40;49.00;;;;;;4995785;28;20031;-68
2022/02/16 00:53:07;;;;;;;19.00;13.35;;;20.40;49.00;;;;;;4998329;28;20491;-69
2022/02/16 00:55:34;;;;;;;18.13;13.38;;;20.40;49.10;;;;;;4996578;28;20026;-69
2022/02/16 00:57:59;;;;;;;18.10;13.45;;;20.40;49.00;;;;;;4997545;28;20237;-68
2022/02/16 01:00:25;;;;;;;18.33;13.02;;;20.40;49.00;;;;;;4994306;28;20497;-66
2022/02/16 01:02:51;;;;;;;18.83;12.85;;;20.40;49.00;;;;;;4995250;28;20091;-65
2022/02/16 01:05:17;;;;;;;17.38;12.88;;;20.40;49.00;;;;;;4996714;28;20517;-67
2022/02/16 01:07:42;;;;;;;17.13;12.57;;;20.40;49.00;;;;;;4996599;28;20149;-69
2022/02/16 01:10:09;;;;;;;16.50;12.18;;;20.40;49.00;;;;;;4996445;28;20042;-68
2022/02/16 01:12:35;;;;;;;16.73;11.65;;;20.30;48.90;;;;;;4996136;28;20018;-69
2022/02/16 01:15:01;;;;;;;14.55;11.50;;;20.40;49.00;;;;;;4995230;28;20033;-68
2022/02/16 01:17:26;;;;;;;15.18;11.30;;;20.30;49.00;;;;;;4995815;28;20107;-69
2022/02/16 01:19:52;;;;;;;17.02;11.98;;;20.30;49.00;;;;;;4995906;28;20033;-69
2022/02/16 01:22:17;;;;;;;16.42;11.75;;;20.40;49.00;;;;;;4997170;28;20022;-69
2022/02/16 01:24:43;;;;;;;16.50;12.15;;;20.30;49.00;;;;;;4995633;28;20029;-68
2022/02/16 01:27:09;;;;;;;16.08;11.82;;;20.30;49.00;;;;;;4995925;28;20026;-68
2022/02/16 01:29:34;;;;;;;14.93;11.25;;;20.30;49.00;;;;;;4994902;28;20053;-69
2022/02/16 01:32:00;;;;;;;16.25;11.32;;;20.30;49.00;;;;;;4994592;28;20089;-68
2022/02/16 01:34:25;;;;;;;14.10;10.43;;;20.30;49.00;;;;;;4995390;28;20039;-69
2022/02/16 01:36:51;;;;;;;14.63;10.85;;;20.30;49.00;;;;;;4997454;28;20026;-69
2022/02/16 01:39:17;;;;;;;15.15;10.40;;;20.30;49.00;;;;;;4997809;28;20037;-67
2022/02/16 01:41:43;;;;;;;15.15;10.43;;;20.30;49.50;;;;;;4999637;28;20026;-65
2022/02/16 01:44:08;;;;;;;14.07;9.82;;;20.30;49.00;;;;;;4998548;28;20077;-68
2022/02/16 01:46:49;;;;;;;14.27;10.45;;;20.30;49.00;;;;;;4999094;28;20042;-68
2022/02/16 01:49:15;;;;;;;13.90;9.93;;;20.30;49.00;;;;;;4998439;28;20034;-65
2022/02/16 01:51:40;;;;;;;13.30;9.93;;;20.30;49.00;;;;;;5000756;28;20038;-68
2022/02/16 01:54:06;;;;;;;14.75;10.68;;;20.30;49.00;;;;;;4998250;28;20052;-67
2022/02/16 01:56:32;;;;;;;14.80;10.60;;;20.30;49.00;;;;;;4997847;28;20040;-66
2022/02/16 01:58:58;;;;;;;13.52;9.85;;;20.30;49.00;;;;;;4997684;28;20057;-68
2022/02/16 02:01:24;;;;;;;13.48;9.85;;;20.30;49.00;;;;;;4997910;28;20045;-69
2022/02/16 02:03:50;;;;;;;12.80;9.35;;;20.30;49.00;;;;;;5013883;28;20089;-69
2022/02/16 02:06:15;;;;;;;13.18;10.07;;;20.30;49.00;;;;;;5015232;28;20030;-68
2022/02/16 02:08:41;;;;;;;13.13;9.68;;;20.20;49.00;;;;;;4999022;28;20038;-68
2022/02/16 02:11:07;;;;;;;12.18;9.30;;;20.20;49.00;;;;;;5013882;28;20478;-68
2022/02/16 02:13:32;;;;;;;14.65;9.75;;;20.30;49.00;;;;;;4998107;28;20374;-68
2022/02/16 02:15:58;;;;;;;13.65;9.80;;;20.20;49.00;;;;;;4997010;28;20030;-69
2022/02/16 02:18:24;;;;;;;13.40;9.90;;;20.20;49.00;;;;;;4997704;28;20088;-68
2022/02/16 02:20:50;;;;;;;13.63;9.35;;;20.20;49.00;;;;;;4997694;28;20314;-69
2022/02/16 02:23:15;;;;;;;12.88;8.98;;;20.20;49.00;;;;;;4998940;28;20030;-65
2022/02/16 02:25:52;;;;;;;12.57;9.32;;;20.20;49.00;;;;;;4998049;28;20109;-66
2022/02/16 02:28:23;;;;;;;13.82;9.75;;;20.20;49.00;;;;;;4996442;28;20035;-68
2022/02/16 02:30:49;;;;;;;12.43;9.07;;;20.20;49.00;;;;;;4997061;28;20149;-68
2022/02/16 02:33:15;;;;;;;11.77;8.32;;;20.20;49.00;;;;;;4998070;28;20157;-68
2022/02/16 02:35:41;;;;;;;12.38;8.80;;;20.20;49.00;;;;;;4997310;28;20038;-65
2022/02/16 02:38:07;;;;;;;12.63;8.90;;;20.20;48.90;;;;;;4998985;28;20040;-68
2022/02/16 02:40:33;;;;;;;12.80;9.10;;;20.20;49.00;;;;;;5013805;28;20161;-65
2022/02/16 02:42:59;;;;;;;12.40;9.10;;;20.20;49.00;;;;;;4997464;28;20223;-66
2022/02/16 02:45:25;;;;;;;11.70;9.18;;;20.20;49.00;;;;;;4996783;28;20026;-68
2022/02/16 02:47:50;;;;;;;11.73;7.90;;;20.20;49.00;;;;;;4997458;28;20568;-69
2022/02/16 02:50:16;;;;;;;12.02;8.93;;;20.20;49.00;;;;;;4996350;28;20030;-66
2022/02/16 02:52:42;;;;;;;12.02;8.13;;;20.20;49.00;;;;;;4997937;28;20030;-66
2022/02/16 02:55:10;;;;;;;12.13;8.68;;;20.10;48.90;;;;;;4998728;28;20036;-67
2022/02/16 02:57:37;;;;;;;12.15;7.90;;;20.20;49.00;;;;;;4996965;28;20100;-69
2022/02/16 03:00:05;;;;;;;11.77;8.38;;;20.20;49.00;;;;;;4994857;28;20116;-65
2022/02/16 03:02:31;;;;;;;11.70;8.63;;;20.10;48.90;;;;;;4995582;28;20681;-65
2022/02/16 03:04:56;;;;;;;10.82;7.78;;;20.10;48.90;;;;;;4995843;28;20119;-68
2022/02/16 03:07:22;;;;;;;10.60;7.57;;;20.10;48.90;;;;;;4997513;28;20022;-67
2022/02/16 03:09:48;;;;;;;10.63;8.02;;;20.10;48.90;;;;;;4997218;28;20121;-67
2022/02/16 03:12:13;;;;;;;10.02;7.88;;;20.10;48.90;;;;;;4996141;28;20038;-69
2022/02/16 03:14:39;;;;;;;10.80;7.63;;;20.10;48.90;;;;;;4995777;28;20505;-65
2022/02/16 03:17:05;;;;;;;10.18;7.70;;;20.10;48.90;;;;;;4995820;28;20026;-69
2022/02/16 03:19:30;;;;;;;10.80;7.72;;;20.10;48.90;;;;;;4996827;28;20034;-69
2022/02/16 03:21:56;;;;;;;11.25;7.65;;;20.10;48.90;;;;;;4996339;28;20033;-68
2022/02/16 03:24:22;;;;;;;9.75;7.45;;;20.10;48.90;;;;;;4997159;28;20101;-64
2022/02/16 03:26:47;;;;;;;10.73;8.00;;;20.10;49.00;;;;;;5011992;28;20042;-68
2022/02/16 03:29:13;;;;;;;9.70;7.32;;;20.10;49.00;;;;;;4995812;28;20033;-67
2022/02/16 03:31:39;;;;;;;9.40;7.00;;;20.10;49.00;;;;;;4994728;28;20030;-68
2022/02/16 03:34:05;;;;;;;10.23;6.97;;;20.00;48.90;;;;;;4995956;28;20056;-68
2022/02/16 03:36:31;;;;;;;9.43;7.03;;;20.10;49.00;;;;;;4997519;28;20030;-67
2022/02/16 03:38:57;;;;;;;9.13;6.97;;;20.10;49.00;;;;;;4997397;28;20339;-68
2022/02/16 03:41:23;;;;;;;10.00;6.63;;;20.00;48.90;;;;;;4996518;28;20038;-64
2022/02/16 03:43:48;;;;;;;8.68;6.50;;;20.10;48.90;;;;;;4995364;28;20033;-65
2022/02/16 03:46:14;;;;;;;8.82;6.70;;;20.00;48.90;;;;;;4995847;28;20264;-66
2022/02/16 03:48:39;;;;;;;8.75;6.38;;;20.10;48.90;;;;;;4995614;28;20116;-68
2022/02/16 03:51:06;;;;;;;9.57;6.97;;;20.00;48.80;;;;;;4995971;28;20234;-68
2022/02/16 03:53:31;;;;;;;9.25;6.10;;;20.10;48.90;;;;;;4996723;28;20022;-68
2022/02/16 03:55:57;;;;;;;9.27;7.00;;;20.00;48.80;;;;;;4996291;28;20037;-66
2022/02/16 03:58:23;;;;;;;9.95;6.93;;;20.00;48.80;;;;;;4994886;28;20132;-69
2022/02/16 04:00:49;;;;;;;9.32;6.28;;;20.10;49.40;;;;;;4994367;28;20212;-68
2022/02/16 04:03:14;;;;;;;7.80;6.25;;;20.10;48.90;;;;;;4994889;28;20044;-65
2022/02/16 04:05:42;;;;;;;8.10;6.15;;;20.10;48.90;;;;;;5010710;28;20038;-65
2022/02/16 04:08:09;;;;;;;8.25;6.90;;;20.00;48.80;;;;;;4996947;28;20120;-69
2022/02/16 04:10:35;;;;;;;8.32;6.60;;;20.00;48.80;;;;;;4996533;28;20029;-67
2022/02/16 04:13:01;;;;;;;9.57;7.07;;;20.00;48.80;;;;;;4995541;28;20075;-68
2022/02/16 04:15:26;;;;;;;9.07;6.45;;;20.00;48.80;;;;;;4994308;28;20022;-67
2022/02/16 04:17:52;;;;;;;7.93;6.25;;;20.00;48.80;;;;;;4996275;28;20082;-68
2022/02/16 04:20:18;;;;;;;8.93;6.53;;;20.00;48.80;;;;;;4996388;28;20298;-69
2022/02/16 04:22:47;;;;;;;8.75;6.40;;;20.00;48.80;;;;;;4996485;28;20026;-66
2022/02/16 04:25:14;;;;;;;8.52;6.45;;;20.00;48.80;;;;;;4995557;28;20069;-69
2022/02/16 04:27:40;;;;;;;9.30;6.18;;;20.00;48.80;;;;;;4995393;28;20065;-69
2022/02/16 04:30:06;;;;;;;8.60;6.10;;;20.00;48.80;;;;;;4994673;28;20038;-67
2022/02/16 04:32:33;;;;;;;6.78;5.20;;;20.00;48.90;;;;;;4995410;28;20018;-68
2022/02/16 04:34:58;;;;;;;7.95;5.72;;;20.00;48.90;;;;;;4995659;28;20030;-68
2022/02/16 04:37:24;;;;;;;7.63;5.43;;;20.00;48.90;;;;;;4997305;28;20025;-68
2022/02/16 04:39:50;;;;;;;7.55;5.72;;;20.00;49.00;;;;;;4995478;28;20481;-68
2022/02/16 04:42:16;;;;;;;8.10;6.03;;;20.00;49.00;;;;;;4996315;28;20140;-68
2022/02/16 04:44:42;;;;;;;7.68;5.40;;;20.00;49.00;;;;;;4992543;28;20099;-68
2022/02/16 04:47:07;;;;;;;6.80;5.35;;;20.00;49.00;;;;;;4995769;28;20784;-68
2022/02/16 04:49:33;;;;;;;7.22;5.32;;;19.90;49.00;;;;;;4999471;28;20402;-66
2022/02/16 04:51:59;;;;;;;7.43;5.38;;;19.90;49.00;;;;;;5001054;28;20077;-64
2022/02/16 04:54:24;;;;;;;7.28;5.32;;;19.90;49.00;;;;;;4996099;28;20387;-68
2022/02/16 04:56:50;;;;;;;7.60;5.28;;;19.90;49.00;;;;;;4996032;28;20549;-67
2022/02/16 04:59:16;;;;;;;7.43;5.45;;;19.90;49.00;;;;;;4993827;28;20029;-68
2022/02/16 05:01:42;;;;;;;7.25;5.13;;;19.90;49.00;;;;;;4994920;28;20399;-67
2022/02/16 05:04:08;;;;;;;6.88;5.20;;;19.90;49.10;;;;;;4995235;28;20092;-68
2022/02/16 05:06:37;;;;;;;6.82;5.40;;;19.90;49.10;;;;;;5011255;28;20034;-67
2022/02/16 05:09:07;;;;;;;7.63;5.20;;;19.90;49.10;;;;;;4994544;28;20356;-68
2022/02/16 05:11:33;;;;;;;7.10;5.22;;;19.90;49.10;;;;;;4997049;28;20046;-68
2022/02/16 05:13:58;;;;;;;6.95;5.13;;;19.90;49.10;;;;;;5008458;28;20121;-65
2022/02/16 05:16:24;;;;;;;6.65;4.65;;;19.90;49.10;;;;;;4998896;28;20037;-68
2022/02/16 05:18:50;;;;;;;7.10;5.07;;;19.90;49.10;;;;;;4998902;28;20343;-67
2022/02/16 05:21:16;;;;;;;6.85;4.70;;;19.90;49.10;;;;;;4999813;28;20025;-67
2022/02/16 05:23:42;;;;;;;5.88;4.55;;;19.90;49.10;;;;;;4999261;28;20033;-66
2022/02/16 05:26:09;;;;;;;6.85;4.75;;;19.90;49.10;;;;;;5000744;28;20100;-68
2022/02/16 05:28:34;;;;;;;7.10;4.82;;;19.90;49.10;;;;;;4998274;28;20382;-67
2022/02/16 05:31:00;;;;;;;6.43;4.65;;;19.90;49.10;;;;;;4998121;28;20034;-69
2022/02/16 05:33:26;;;;;;;6.20;4.43;;;19.90;49.10;;;;;;4999062;28;20136;-66
2022/02/16 05:35:52;;;;;;;6.10;4.32;;;19.90;49.10;;;;;;4999398;28;20477;-66
2022/02/16 05:38:18;;;;;;;5.85;4.22;;;19.90;49.10;;;;;;5014297;28;20046;-68
2022/02/16 05:40:44;;;;;;;5.85;4.00;;;19.90;49.10;;;;;;4999066;28;20046;-69
2022/02/16 05:43:12;;;;;;;6.20;4.40;;;19.90;49.10;;;;;;4999093;28;20048;-67
2022/02/16 05:45:38;;;;;;;6.20;4.18;;;19.90;49.10;;;;;;4997642;28;20034;-68
2022/02/16 05:48:05;;;;;;;5.07;3.53;;;19.90;49.10;;;;;;4997682;28;20651;-67
2022/02/16 05:50:31;;;;;;;5.57;4.07;;;19.90;49.10;;;;;;4997893;28;20029;-65
2022/02/16 05:52:57;;;;;;;5.65;3.97;;;19.90;49.10;;;;;;5000052;28;20033;-68
2022/02/16 05:55:22;;;;;;;5.00;4.10;;;19.90;49.10;;;;;;4998837;28;20034;-68
2022/02/16 05:57:48;;;;;;;5.05;3.63;;;19.80;49.10;;;;;;5013051;28;20458;-67
2022/02/16 06:00:14;;;;;;;5.25;3.50;;;19.90;49.20;;;;;;4996441;28;20052;-68
2022/02/16 06:02:41;;;;;;;5.65;3.67;;;19.80;49.20;;;;;;5013118;28;20042;-65
2022/02/16 06:05:07;;;;;;;4.78;3.40;;;19.80;49.10;;;;;;5012557;28;20474;-68
2022/02/16 06:07:33;;;;;;;4.82;3.28;;;19.80;49.10;;;;;;4998174;28;20131;-67
2022/02/16 06:09:58;;;;;;;5.25;3.58;;;19.80;49.20;;;;;;4997922;28;20130;-68
2022/02/16 06:12:24;;;;;;;4.45;3.13;;;19.80;49.20;;;;;;5014280;28;20022;-68
2022/02/16 06:14:50;;;;;;;4.80;3.28;;;19.90;49.20;;;;;;4998697;28;20034;-67
2022/02/16 06:17:15;;;;;;;4.55;3.17;;;19.80;49.20;;;;;;4995441;28;20025;-68
2022/02/16 06:19:41;;;;;;;5.15;3.30;;;19.80;49.20;;;;;;4998349;28;20167;-68
2022/02/16 06:22:08;;;;;;;4.70;3.50;;;19.80;49.20;;;;;;4999594;28;20627;-69
2022/02/16 06:24:34;;;;;;;4.68;3.20;;;19.80;49.20;;;;;;4997236;28;20095;-68
2022/02/16 06:26:59;;;;;;;5.28;3.50;;;19.80;49.20;;;;;;4997432;28;20042;-67
2022/02/16 06:29:25;;;;;;;4.38;3.05;;;19.80;49.20;;;;;;4997830;28;20034;-68
2022/02/16 06:31:51;;;;;;;4.38;3.10;;;19.80;49.20;;;;;;4997326;28;20034;-69
2022/02/16 06:34:16;;;;;;;4.30;3.10;;;19.80;49.20;;;;;;4997787;28;20872;-68
2022/02/16 06:36:42;;;;;;;4.90;3.20;;;19.80;49.20;;;;;;5012416;28;20062;-68
2022/02/16 06:39:08;;;;;;;4.82;3.10;;;19.80;49.20;;;;;;4997331;28;20068;-69
2022/02/16 06:41:34;;;;;;;3.85;2.80;;;19.80;49.20;;;;;;4998126;28;20077;-65
2022/02/16 06:44:00;;;;;;;4.72;3.13;;;19.80;49.20;;;;;;4997964;28;20030;-66
2022/02/16 06:46:26;;;;;;;4.30;2.88;;;19.80;49.20;;;;;;4996572;28;20026;-67
2022/02/16 06:48:51;;;;;;;4.50;3.00;;;19.80;49.20;;;;;;4996683;28;20109;-67
2022/02/16 06:51:17;;;;;;;3.85;2.72;;;19.80;49.20;;;;;;4997762;28;20487;-67
2022/02/16 06:53:55;;;;;;;4.60;2.85;;;19.80;49.20;;;;;;4997978;28;20029;-68
2022/02/16 06:56:21;;;;;;;4.65;2.60;;;19.80;49.20;;;;;;4998322;28;20072;-66
2022/02/16 06:58:46;;;;;;;3.80;2.53;;;19.80;49.20;;;;;;4996182;28;20517;-67
2022/02/16 07:01:12;;;;;;;4.43;2.80;;;19.80;49.20;;;;;;4995796;28;20172;-69
2022/02/16 07:03:38;;;;;;;3.90;2.58;;;19.80;49.10;;;;;;5011576;28;20034;-69
2022/02/16 07:06:03;;;;;;;4.20;2.67;;;19.80;49.20;;;;;;4998260;28;20113;-68
2022/02/16 07:08:29;;;;;;;3.90;2.53;;;19.80;49.20;;;;;;4997844;28;20055;-67
2022/02/16 07:10:54;;;;;;;3.92;2.67;;;19.80;49.20;;;;;;5001507;28;20041;-69
2022/02/16 07:13:21;;;;;;;4.40;2.65;;;19.80;49.10;;;;;;4996563;28;20446;-67
2022/02/16 07:15:48;;;;;;;4.28;2.67;;;19.80;49.70;;;;;;4997366;28;20686;-68
2022/02/16 07:18:14;;;;;;;4.85;3.10;;;19.80;49.20;;;;;;4996483;28;20109;-68
2022/02/16 07:20:40;;;;;;;3.50;2.60;;;19.80;49.20;;;;;;4996716;28;20112;-67
2022/02/16 07:23:06;;;;;;;4.97;3.00;;;19.80;49.20;;;;;;5003691;28;20065;-67
2022/02/16 07:25:32;;;;;;;4.95;3.05;;;19.80;49.20;;;;;;4997505;28;20081;-65
2022/02/16 07:27:58;;;;;;;3.60;2.40;;;19.80;49.20;;;;;;4997191;28;20038;-68
2022/02/16 07:30:23;;;;;;;3.65;2.30;;;19.80;49.20;;;;;;4994057;28;20142;-68
2022/02/16 07:32:49;;;;;;;4.55;2.65;;;19.80;49.20;;;;;;4996180;28;20144;-68
2022/02/16 07:35:15;;;;;;;4.43;2.53;;;19.80;49.20;;;;;;4996702;28;20046;-66
2022/02/16 07:37:41;;;;;;;3.97;2.72;;;19.80;49.20;;;;;;4996648;28;20050;-68
2022/02/16 07:40:07;;;;;;;4.32;2.63;;;19.80;49.70;;;;;;4996772;28;20493;-68
2022/02/16 07:42:34;;;;;;;4.55;2.72;;;19.80;49.20;;;;;;4996564;28;20026;-69
2022/02/16 07:44:59;;;;;;;3.78;2.58;;;19.80;49.20;;;;;;4995790;28;20277;-66
2022/02/16 07:47:25;;;;;;;3.70;2.58;;;19.80;49.20;;;;;;4995362;28;20121;-67
2022/02/16 07:49:51;;;;;;;3.97;2.28;;;19.80;49.20;;;;;;5011010;28;20367;-66
2022/02/16 07:52:17;;;;;;;4.07;2.30;;;19.80;49.20;;;;;;4997004;28;20029;-65
2022/02/16 07:54:43;;;;;;;4.35;2.45;;;19.80;49.20;;;;;;4996876;28;20027;-68
2022/02/16 07:57:08;;;;;;;5.00;2.13;;;19.80;49.20;;;;;;4996162;28;20037;-65
2022/02/16 07:59:35;;;;;;;3.67;2.20;;;19.80;49.20;;;;;;4995274;28;20025;-69
2022/02/16 08:02:03;;;;;;;4.45;2.60;;;19.80;49.20;;;;;;4995089;28;20046;-68
2022/02/16 08:04:30;;;;;;;4.82;2.50;;;19.80;49.20;;;;;;4996042;28;20041;-68
2022/02/16 08:06:56;;;;;;;4.43;2.70;;;19.80;49.20;;;;;;5010051;28;20022;-68
2022/02/16 08:09:22;;;;;;;4.40;2.47;;;19.80;49.20;;;;;;4996369;28;20037;-67
2022/02/16 08:11:48;;;;;;;5.05;2.45;;;19.80;49.60;;;;;;4996980;28;20040;-68
2022/02/16 08:14:15;;;;;;;3.90;2.47;;;19.80;49.10;;;;;;4995320;28;20022;-68
2022/02/16 08:16:41;;;;;;;3.65;2.30;;;19.70;49.00;;;;;;4994214;28;20454;-68
2022/02/16 08:19:08;;;;;;;4.15;2.30;;;19.80;49.10;;;;;;4995578;28;20155;-65
2022/02/16 08:21:35;;;;;;;3.70;2.17;;;19.80;49.00;;;;;;4996650;28;20032;-68
2022/02/16 08:24:01;;;;;;;3.17;2.10;;;19.80;49.00;;;;;;4994928;28;20025;-68
2022/02/16 08:26:27;;;;;;;4.07;2.13;;;19.70;48.90;;;;;;4996309;28;20100;-68
2022/02/16 08:28:52;;;;;;;5.00;2.42;;;19.70;48.90;;;;;;4994057;28;20122;-67
2022/02/16 08:31:18;;;;;;;3.53;2.00;;;19.80;49.00;;;;;;4993321;28;20117;-69
2022/02/16 08:33:44;;;;;;;2.97;2.05;;;19.80;48.90;;;;;;4995461;28;20034;-69
2022/02/16 08:36:13;;;;;;;3.55;2.10;;;19.70;48.80;;;;;;5011893;28;20046;-68
2022/02/16 08:38:40;;;;;;;3.40;2.08;;;19.70;48.80;;;;;;4996353;28;20036;-69
2022/02/16 08:41:07;;;;;;;3.55;2.30;;;19.80;48.90;;;;;;4996112;28;20038;-66
2022/02/16 08:43:33;;;;;;;3.50;2.00;;;19.70;48.80;;;;;;4995468;28;20034;-68
2022/02/16 08:45:59;;;;;;;4.10;2.20;;;19.70;48.80;;;;;;4994389;28;20141;-68
2022/02/16 08:48:25;;;;;;;3.33;2.05;;;19.70;48.70;;;;;;4996433;28;20330;-68
2022/02/16 08:50:52;;;;;;;3.13;1.88;;;19.70;48.70;;;;;;5000119;28;20038;-66
2022/02/16 08:53:18;;;;;;;3.30;2.00;;;19.70;48.70;;;;;;5001036;28;20030;-66
2022/02/16 08:55:44;;;;;;;3.78;2.22;;;19.70;48.70;;;;;;4998451;28;20036;-69
2022/02/16 08:58:09;;;;;;;3.90;2.20;;;19.70;48.70;;;;;;4998742;28;20038;-65
2022/02/16 09:00:38;;;;;;;3.47;2.00;;;19.70;48.70;;;;;;4997082;28;20050;-65
2022/02/16 09:03:04;;;;;;;2.85;1.90;;;19.70;48.70;;;;;;4999783;28;20034;-66
2022/02/16 09:05:30;;;;;;;3.63;2.10;;;19.70;48.60;;;;;;4999817;28;20030;-65
2022/02/16 09:07:56;;;;;;;3.30;2.08;;;19.70;48.60;;;;;;5000383;28;20248;-67
2022/02/16 09:10:21;;;;;;;3.03;1.75;;;19.70;48.60;;;;;;4999011;28;20036;-67
2022/02/16 09:12:47;;;;;;;3.75;1.90;;;19.70;48.60;;;;;;5014802;28;20231;-68
2022/02/16 09:15:13;;;;;;;3.00;1.90;;;19.70;48.60;;;;;;4998334;28;20116;-69
2022/02/16 09:17:39;;;;;;;3.25;1.85;;;19.70;48.60;;;;;;4998533;28;20034;-69
2022/02/16 09:20:05;;;;;;;3.00;1.90;;;19.70;48.60;;;;;;4999209;28;20471;-69
2022/02/16 09:22:31;;;;;;;3.22;1.90;;;19.70;48.60;;;;;;4999308;28;20076;-68
2022/02/16 09:24:57;;;;;;;2.92;1.67;;;19.70;49.10;;;;;;4999430;28;20064;-67
2022/02/16 09:27:23;;;;;;;2.97;1.90;;;19.70;48.60;;;;;;5000495;28;20228;-69
2022/02/16 09:29:50;;;;;;;2.90;1.73;;;19.70;48.60;;;;;;4998647;28;20080;-69
2022/02/16 09:32:16;;;;;;;3.63;1.77;;;19.70;48.60;;;;;;4998345;28;20503;-69
2022/02/16 09:34:45;;;;;;;2.70;1.92;;;19.70;48.50;;;;;;4999444;28;20053;-69
2022/02/16 09:37:11;;;;;;;4.75;1.90;;;19.70;48.50;;;;;;4998613;28;20409;-68
2022/02/16 09:39:36;;;;;;;4.20;1.80;;;19.70;48.50;;;;;;4997113;28;20468;-67
2022/02/16 09:42:02;;;;;;;3.47;2.00;;;19.70;48.50;;;;;;4997825;28;20113;-68
2022/02/16 09:44:45;;;;;;;2.78;1.77;;;19.70;48.50;;;;;;4994295;28;20033;-69
2022/02/16 09:47:12;;;;;;;3.50;1.80;;;19.70;48.40;;;;;;4999023;28;20030;-67
2022/02/16 09:49:38;;;;;;;2.75;1.70;;;19.60;48.40;;;;;;4997377;28;20128;-69
2022/02/16 09:52:06;;;;;;;3.30;1.85;;;19.70;48.40;;;;;;4998156;28;20030;-69
2022/02/16 09:54:32;;;;;;;2.55;1.45;;;19.70;48.50;;;;;;4997224;28;20109;-68
2022/02/16 09:56:57;;;;;;;2.25;1.40;;;19.70;49.00;;;;;;4993144;28;20129;-67
2022/02/16 09:59:23;;;;;;;2.65;1.50;;;19.70;49.30;;;;;;4998204;28;20084;-69
2022/02/16 10:01:56;;;;;;;2.10;1.30;;;19.70;49.40;;;;;;4997748;28;20097;-69
2022/02/16 10:04:29;;;;;;;2.67;1.73;;;19.70;49.60;;;;;;4997702;28;20045;-70
2022/02/16 10:06:55;;;;;;;2.78;1.48;;;19.80;50.10;;;;;;4998796;28;20109;-69
2022/02/16 10:09:35;;;;;;;2.38;1.40;;;19.80;49.40;;;;;;4998756;28;20382;-67
2022/02/16 10:12:06;;;;;;;2.45;1.42;;;19.90;49.30;;;;;;4997942;28;20351;-67
2022/02/16 10:14:35;;;;;;;3.30;1.70;;;19.90;49.20;;;;;;4997340;28;20033;-69
2022/02/16 10:17:17;;;;;;;2.30;1.52;;;19.90;49.00;;;;;;4997649;28;20128;-68
2022/02/16 10:20:07;;;;;;;2.80;1.70;;;19.90;48.90;;;;;;4997426;28;20074;-70
2022/02/16 10:22:56;;;;;;;2.53;1.40;;;19.90;48.80;;;;;;4998919;28;20049;-69
2022/02/16 10:25:27;;;;;;;2.23;1.30;;;20.00;48.90;;;;;;4999285;28;20025;-69
2022/02/16 10:28:11;;;;;;;2.53;1.50;;;20.00;48.60;;;;;;4998027;28;20288;-70
2022/02/16 10:31:07;;;;;;;2.63;1.60;;;20.10;48.50;;;;;;4992484;28;20605;-67
2022/02/16 10:33:36;;;;;;;2.90;1.60;;;20.10;48.40;;;;;;4997848;28;20445;-66
2022/02/16 10:36:04;;;;;;;2.25;1.40;;;20.10;48.30;;;;;;4997659;28;20033;-68
2022/02/16 10:38:31;;;;;;;2.72;1.70;;;20.10;48.20;;;;;;4997475;28;20060;-67
2022/02/16 10:41:07;;;;;;;2.30;1.48;;;20.20;48.10;;;;;;4997378;28;20521;-66
2022/02/16 10:43:40;;;;;;;2.95;1.50;;;20.20;48.00;;;;;;4997453;28;20027;-67
2022/02/16 10:46:27;;;;;;;3.15;1.63;;;20.20;47.90;;;;;;4995881;28;20651;-66
2022/02/16 10:49:12;;;;;;;2.83;1.50;;;20.20;47.80;;;;;;4996607;28;20026;-68
2022/02/16 10:51:39;;;;;;;2.25;1.40;;;20.20;47.70;;;;;;4999579;28;20017;-66
2022/02/16 10:54:13;;;;;;;2.53;1.60;;;20.30;47.60;;;;;;4999523;28;20700;-70
2022/02/16 10:56:41;;;;;;;2.20;1.30;;;20.30;47.80;;;;;;5013581;28;20022;-67
2022/02/16 10:59:07;;;;;;;2.08;1.35;;;20.30;48.20;;;;;;4996175;28;20487;-69
2022/02/16 11:01:35;;;;;;;2.50;1.55;;;20.30;47.80;;;;;;4996900;28;20046;-70
2022/02/16 11:04:04;;;;;;;2.38;1.40;;;20.40;47.80;;;;;;4997589;28;20026;-68
2022/02/16 11:06:35;;;;;;;3.20;1.60;;;20.40;48.10;;;;;;4992956;28;20446;-67
2022/02/16 11:09:01;;;;;;;2.50;1.50;;;20.40;48.10;;;;;;4993684;28;20363;-68
2022/02/16 11:11:30;;;;;;;2.00;1.30;;;20.50;47.80;;;;;;4992109;28;20491;-65
2022/02/16 11:14:03;;;;;;;2.40;1.33;;;20.50;47.80;;;;;;4992960;28;20036;-68
2022/02/16 11:16:29;;;;;;;2.38;1.23;;;20.40;47.50;;;;;;4992841;28;20432;-68
2022/02/16 11:18:59;;;;;;;2.22;1.50;;;20.50;47.40;;;;;;4991504;28;20025;-66
2022/02/16 11:21:28;;;;;;;2.60;1.30;;;20.50;47.80;;;;;;5007873;28;20502;-68
2022/02/16 11:23:56;;;;;;;2.35;1.30;;;20.50;47.30;;;;;;4993790;28;20044;-68
2022/02/16 11:26:48;;;;;;;2.05;1.30;;;20.50;47.10;;;;;;4993731;28;20470;-66
2022/02/16 11:29:26;;;;;;;1.85;1.17;;;20.50;46.90;;;;;;4993193;28;20126;-68
2022/02/16 11:32:12;;;;;;;2.17;1.30;;;20.50;47.00;;;;;;4990944;28;20042;-67
2022/02/16 11:34:38;;;;;;;2.05;1.20;;;20.50;46.90;;;;;;4992691;28;20302;-68
2022/02/16 11:37:05;;;;;;;2.08;1.20;;;20.50;46.70;;;;;;4992624;28;20026;-68
2022/02/16 11:39:48;;;;;;;1.83;1.27;;;20.50;46.80;;;;;;4995562;28;20026;-65
2022/02/16 11:42:18;;;;;;;2.20;1.25;;;20.50;47.10;;;;;;4995060;28;20134;-67
2022/02/16 11:44:52;;;;;;;1.98;1.15;;;20.60;47.30;;;;;;4992463;28;20101;-66
2022/02/16 11:47:33;;;;;;;1.92;1.02;;;20.60;47.50;;;;;;4992667;28;20034;-66
2022/02/16 11:50:00;;;;;;;1.77;1.17;;;20.60;47.80;;;;;;4991690;28;20037;-66
2022/02/16 11:52:40;;;;;;;1.80;1.10;;;20.70;47.90;;;;;;4993411;28;20061;-67
2022/02/16 11:55:20;;;;;;;2.03;1.15;;;20.70;48.10;;;;;;4991731;28;20034;-66
2022/02/16 11:58:02;;;;;;;1.80;1.02;;;20.70;48.30;;;;;;4991614;28;20092;-67
2022/02/16 12:00:30;;;;;;;1.75;1.05;;;20.80;48.50;;;;;;4989074;28;20029;-68
2022/02/16 12:02:56;;;;;;;2.13;1.17;;;20.80;48.60;;;;;;4992486;28;20118;-65
2022/02/16 12:05:45;;;;;;;1.85;1.08;;;20.90;48.70;;;;;;4992881;28;20083;-64
2022/02/16 12:08:23;;;;;;;1.60;1.02;;;20.90;48.60;;;;;;4992670;28;20054;-67
2022/02/16 12:10:55;;;;;;;2.53;1.02;;;20.90;48.80;;;;;;5008665;28;20045;-66
2022/02/16 12:13:32;;;;;;;1.38;0.90;;;21.00;48.90;;;;;;4992852;28;20911;-65
2022/02/16 12:16:22;;;;;;;1.98;1.17;;;21.00;49.00;;;;;;4992217;28;20026;-66
2022/02/16 12:18:48;;;;;;;1.92;1.20;;;21.00;49.10;;;;;;4994628;28;20133;-67
2022/02/16 12:21:27;;;;;;;1.58;0.88;;;21.00;49.20;;;;;;4995980;28;20041;-68
2022/02/16 12:23:59;;;;;;;1.92;1.10;;;21.10;49.10;;;;;;4993516;28;20533;-65
2022/02/16 12:26:25;;;;;;;1.95;1.13;;;21.10;48.30;;;;;;5011839;28;20098;-66
2022/02/16 12:28:57;;;;;;;2.17;1.10;;;21.10;47.80;;;;;;4994442;28;20030;-68
2022/02/16 12:31:24;;;;;;;1.80;1.08;;;21.10;47.60;;;;;;4991995;28;20065;-67
2022/02/16 12:34:05;;;;;;;2.08;1.20;;;21.10;47.20;;;;;;4996954;28;20541;-66
2022/02/16 12:36:36;;;;;;;2.00;0.90;;;21.10;47.20;;;;;;5010250;28;20077;-68
2022/02/16 12:39:05;;;;;;;2.75;1.55;;;21.20;47.30;;;;;;4994976;28;20033;-66
2022/02/16 12:41:30;;;;;;;1.58;1.08;;;21.10;47.10;;;;;;5009010;28;20069;-66
2022/02/16 12:44:05;;;;;;;1.85;1.00;;;21.10;47.20;;;;;;4992401;28;20030;-66
2022/02/16 12:46:34;;;;;;;1.98;1.15;;;21.20;47.40;;;;;;4993636;28;20033;-66